createdAt,value
2022-10-18T00:00:43.899Z,13.90
2022-10-18T00:03:10.806Z,13.87
2022-10-18T00:05:37.516Z,13.83
2022-10-18T00:08:04.215Z,13.75
2022-10-18T00:10:31.124Z,13.68
2022-10-18T00:12:57.854Z,13.88
2022-10-18T00:15:24.717Z,13.57
2022-10-18T00:17:51.654Z,13.45
2022-10-18T00:20:18.331Z,13.56
2022-10-18T00:22:45.026Z,13.62
2022-10-18T00:25:11.945Z,13.33
2022-10-18T00:27:38.573Z,13.54
2022-10-18T00:30:05.550Z,13.58
2022-10-18T00:32:35.948Z,13.66
2022-10-18T00:35:02.686Z,13.54
2022-10-18T00:37:29.442Z,13.60
2022-10-18T00:39:56.345Z,13.47
2022-10-18T00:42:30.442Z,13.49
2022-10-18T00:45:17.926Z,13.40
2022-10-18T00:47:46.225Z,13.65
2022-10-18T00:50:13.149Z,13.66
2022-10-18T00:52:41.268Z,13.56
2022-10-18T00:55:08.222Z,13.28
2022-10-18T00:57:35.178Z,13.30
2022-10-18T01:00:02.157Z,13.47
2022-10-18T01:02:29.152Z,13.39
2022-10-18T01:04:56.378Z,13.32
2022-10-18T01:07:25.956Z,13.56
2022-10-18T01:10:11.598Z,13.03
2022-10-18T01:12:43.913Z,13.17
2022-10-18T01:15:21.303Z,13.31
2022-10-18T01:17:51.801Z,13.13
2022-10-18T01:20:38.720Z,13.40
2022-10-18T01:23:11.645Z,13.10
2022-10-18T01:25:40.861Z,13.43
2022-10-18T01:28:16.983Z,13.32
2022-10-18T01:30:46.502Z,13.34
2022-10-18T01:33:16.135Z,13.18
2022-10-18T01:35:44.511Z,13.03
2022-10-18T01:38:11.560Z,13.11
2022-10-18T01:40:38.625Z,13.29
2022-10-18T01:45:37.113Z,13.21
2022-10-18T01:48:04.063Z,13.38
2022-10-18T01:50:31.448Z,13.03
2022-10-18T01:52:58.267Z,13.18
2022-10-18T01:55:32.143Z,13.24
2022-10-18T01:58:02.673Z,13.23
2022-10-18T02:00:31.916Z,12.88
2022-10-18T02:03:00.231Z,13.02
2022-10-18T02:05:26.866Z,12.79
2022-10-18T02:08:05.605Z,13.01
2022-10-18T02:10:41.523Z,12.98
2022-10-18T02:13:08.694Z,12.94
2022-10-18T02:15:36.219Z,12.64
2022-10-18T02:18:03.873Z,12.79
2022-10-18T02:20:32.344Z,12.91
2022-10-18T02:22:59.006Z,13.00
2022-10-18T02:25:27.419Z,12.88
2022-10-18T02:27:54.358Z,12.74
2022-10-18T02:30:22.159Z,12.94
2022-10-18T02:32:50.459Z,12.41
2022-10-18T02:35:19.191Z,12.65
2022-10-18T02:37:45.927Z,12.65
2022-10-18T02:40:13.390Z,12.75
2022-10-18T02:42:45.698Z,12.86
2022-10-18T02:45:12.394Z,12.49
2022-10-18T02:47:39.367Z,12.86
2022-10-18T02:50:06.191Z,12.91
2022-10-18T02:52:32.915Z,12.68
2022-10-18T02:54:59.926Z,12.94
2022-10-18T02:57:26.689Z,12.78
2022-10-18T02:59:53.374Z,12.87
2022-10-18T03:02:20.474Z,12.82
2022-10-18T03:04:47.164Z,12.93
2022-10-18T03:07:13.795Z,12.70
2022-10-18T03:09:40.803Z,12.70
2022-10-18T03:12:07.641Z,12.72
2022-10-18T03:14:35.329Z,12.75
2022-10-18T03:17:02.229Z,12.54
2022-10-18T03:19:29.096Z,12.71
2022-10-18T03:21:55.791Z,12.75
2022-10-18T03:24:23.191Z,12.49
2022-10-18T03:26:49.893Z,12.73
2022-10-18T03:29:16.531Z,12.70
2022-10-18T03:31:43.487Z,12.61
2022-10-18T03:34:10.275Z,12.49
2022-10-18T03:36:38.563Z,12.36
2022-10-18T03:39:05.517Z,12.53
2022-10-18T03:41:32.170Z,12.60
2022-10-18T03:43:58.794Z,12.61
2022-10-18T03:46:25.719Z,12.36
2022-10-18T03:48:52.402Z,12.30
2022-10-18T03:51:19.050Z,12.42
2022-10-18T03:53:46.002Z,12.48
2022-10-18T03:56:12.706Z,12.33
2022-10-18T03:58:39.375Z,12.44
2022-10-18T04:01:07.061Z,12.52
2022-10-18T04:03:34.081Z,12.30
2022-10-18T04:06:00.852Z,12.27
2022-10-18T04:08:27.552Z,12.63
2022-10-18T04:10:54.534Z,12.37
2022-10-18T04:13:21.213Z,12.59
2022-10-18T04:15:47.887Z,12.45
2022-10-18T04:18:14.824Z,12.40
2022-10-18T04:20:41.466Z,12.43
2022-10-18T04:23:08.387Z,12.33
2022-10-18T04:25:35.457Z,12.31
2022-10-18T04:28:02.244Z,12.36
2022-10-18T04:30:33.831Z,12.38
2022-10-18T04:33:18.896Z,12.26
2022-10-18T04:35:46.076Z,12.28
2022-10-18T04:38:14.277Z,12.32
2022-10-18T04:40:41.209Z,12.18
2022-10-18T04:43:08.012Z,12.20
2022-10-18T04:45:34.692Z,12.14
2022-10-18T04:48:01.704Z,12.22
2022-10-18T04:50:28.371Z,12.27
2022-10-18T04:52:56.838Z,12.29
2022-10-18T04:55:23.859Z,12.00
2022-10-18T04:57:50.633Z,12.28
2022-10-18T05:00:17.383Z,12.22
2022-10-18T05:02:44.301Z,12.13
2022-10-18T05:05:13.933Z,12.15
2022-10-18T05:07:40.947Z,11.91
2022-10-18T05:10:08.158Z,11.97
2022-10-18T05:12:35.182Z,12.08
2022-10-18T05:15:02.022Z,11.88
2022-10-18T05:17:28.915Z,11.68
2022-10-18T05:19:55.536Z,11.66
2022-10-18T05:22:22.231Z,11.75
2022-10-18T05:24:49.220Z,11.75
2022-10-18T05:27:15.928Z,11.70
2022-10-18T05:29:42.685Z,11.73
2022-10-18T05:32:09.964Z,11.91
2022-10-18T05:34:36.736Z,12.14
2022-10-18T05:37:03.476Z,11.97
2022-10-18T05:39:30.441Z,11.84
2022-10-18T05:41:58.244Z,11.89
2022-10-18T05:44:25.044Z,11.82
2022-10-18T05:46:52.183Z,11.57
2022-10-18T05:49:18.963Z,11.74
2022-10-18T05:51:45.723Z,12.02
2022-10-18T05:54:12.726Z,12.12
2022-10-18T05:59:12.305Z,12.05
2022-10-18T06:01:40.106Z,12.24
2022-10-18T06:04:07.355Z,12.15
2022-10-18T06:06:34.204Z,12.34
2022-10-18T06:09:03.262Z,12.50
2022-10-18T06:11:30.464Z,12.38
2022-10-18T06:13:58.086Z,12.43
2022-10-18T06:16:29.830Z,12.49
2022-10-18T06:19:00.059Z,12.28
2022-10-18T06:21:27.038Z,12.43
2022-10-18T06:23:54.636Z,12.54
2022-10-18T06:26:21.706Z,12.80
2022-10-18T06:28:48.582Z,12.72
2022-10-18T06:31:15.556Z,12.88
2022-10-18T06:33:42.619Z,13.01
2022-10-18T06:36:14.676Z,13.13
2022-10-18T06:38:41.416Z,13.10
2022-10-18T06:41:08.949Z,13.11
2022-10-18T06:43:35.699Z,13.17
2022-10-18T06:46:04.811Z,13.34
2022-10-18T06:48:31.859Z,13.51
2022-10-18T06:50:59.128Z,13.68
2022-10-18T06:53:26.591Z,14.07
2022-10-18T06:55:58.723Z,14.28
2022-10-18T06:59:23.587Z,14.62
2022-10-18T07:01:56.249Z,14.98
2022-10-18T07:04:22.916Z,15.54
2022-10-18T07:06:49.630Z,15.87
2022-10-18T07:09:16.562Z,16.11
2022-10-18T07:11:43.844Z,16.33
2022-10-18T07:14:15.347Z,16.55
2022-10-18T07:16:43.190Z,16.80
2022-10-18T07:19:10.094Z,16.96
2022-10-18T07:21:36.767Z,17.27
2022-10-18T07:24:03.770Z,17.46
2022-10-18T07:26:31.234Z,17.76
2022-10-18T07:29:00.444Z,17.87
2022-10-18T07:31:27.916Z,18.17
2022-10-18T07:33:54.664Z,18.40
2022-10-18T07:36:22.231Z,18.60
2022-10-18T07:38:49.447Z,18.81
2022-10-18T07:41:16.173Z,18.85
2022-10-18T07:43:44.446Z,19.22
2022-10-18T07:46:11.563Z,19.45
2022-10-18T07:48:38.223Z,19.66
2022-10-18T07:51:05.057Z,19.87
2022-10-18T07:53:32.277Z,20.06
2022-10-18T07:56:01.376Z,20.08
2022-10-18T07:58:30.981Z,20.31
2022-10-18T08:00:57.930Z,20.42
2022-10-18T08:03:24.859Z,20.34
2022-10-18T08:05:52.965Z,20.58
2022-10-18T08:08:20.069Z,20.59
2022-10-18T08:10:47.246Z,20.64
2022-10-18T08:13:14.080Z,20.63
2022-10-18T08:15:40.878Z,21.08
2022-10-18T08:18:07.815Z,21.18
2022-10-18T08:20:36.388Z,21.16
2022-10-18T08:23:06.371Z,21.23
2022-10-18T08:25:33.534Z,21.39
2022-10-18T08:28:01.666Z,21.27
2022-10-18T08:30:28.656Z,21.37
2022-10-18T08:32:56.818Z,21.68
2022-10-18T08:35:23.541Z,21.48
2022-10-18T08:37:54.633Z,21.63
2022-10-18T08:40:22.412Z,21.64
2022-10-18T08:42:52.874Z,21.55
2022-10-18T08:45:37.354Z,21.37
2022-10-18T08:48:07.021Z,21.78
2022-10-18T08:50:35.572Z,21.88
2022-10-18T08:53:06.691Z,21.81
2022-10-18T08:55:38.533Z,21.98
2022-10-18T08:58:24.814Z,22.23
2022-10-18T09:01:10.917Z,22.27
2022-10-18T09:03:53.155Z,22.21
2022-10-18T09:06:23.610Z,22.23
2022-10-18T09:09:05.761Z,22.06
2022-10-18T09:11:58.056Z,21.84
2022-10-18T09:14:27.788Z,21.87
2022-10-18T09:16:54.713Z,22.36
2022-10-18T09:19:40.192Z,22.46
2022-10-18T09:22:10.228Z,22.54
2022-10-18T09:24:58.422Z,22.51
2022-10-18T09:27:29.632Z,22.66
2022-10-18T09:29:58.839Z,22.50
2022-10-18T09:32:25.881Z,22.78
2022-10-18T09:34:53.706Z,22.46
2022-10-18T09:37:21.089Z,22.84
2022-10-18T09:39:48.538Z,23.15
2022-10-18T09:42:17.267Z,22.90
2022-10-18T09:45:00.542Z,22.43
2022-10-18T09:48:01.130Z,22.61
2022-10-18T09:50:29.317Z,22.92
2022-10-18T09:53:04.851Z,22.92
2022-10-18T09:55:32.245Z,23.13
2022-10-18T09:58:00.169Z,22.58
2022-10-18T10:00:31.763Z,22.74
2022-10-18T10:02:59.045Z,22.79
2022-10-18T10:05:25.696Z,22.43
2022-10-18T10:07:57.167Z,22.66
2022-10-18T10:10:24.875Z,22.97
2022-10-18T10:13:10.423Z,22.65
2022-10-18T10:15:39.382Z,23.18
2022-10-18T10:18:21.732Z,23.11
2022-10-18T10:20:50.298Z,22.94
2022-10-18T10:23:21.277Z,22.37
2022-10-18T10:26:01.901Z,22.73
2022-10-18T10:28:33.595Z,22.75
2022-10-18T10:31:21.441Z,22.75
2022-10-18T10:33:48.236Z,22.39
2022-10-18T10:36:19.572Z,22.68
2022-10-18T10:38:46.550Z,22.86
2022-10-18T10:41:18.262Z,22.96
2022-10-18T10:43:45.942Z,23.23
2022-10-18T10:46:15.903Z,23.40
2022-10-18T10:48:45.547Z,23.51
2022-10-18T10:51:12.522Z,23.36
2022-10-18T10:53:57.184Z,23.51
2022-10-18T10:56:27.607Z,23.72
2022-10-18T10:58:54.787Z,23.18
2022-10-18T11:01:26.045Z,22.93
2022-10-18T11:03:57.963Z,23.21
2022-10-18T11:06:45.101Z,22.77
2022-10-18T11:09:32.270Z,23.19
2022-10-18T11:12:19.292Z,23.08
2022-10-18T11:14:47.190Z,22.96
2022-10-18T11:17:28.383Z,23.40
2022-10-18T11:20:07.513Z,23.35
2022-10-18T11:22:36.037Z,23.33
2022-10-18T11:25:04.405Z,23.17
2022-10-18T11:27:53.550Z,23.20
2022-10-18T11:30:26.317Z,23.48
2022-10-18T11:32:55.873Z,23.85
2022-10-18T11:35:26.380Z,23.11
2022-10-18T11:38:15.878Z,23.56
2022-10-18T11:41:01.952Z,23.58
2022-10-18T11:44:00.597Z,23.69
2022-10-18T11:46:37.519Z,23.50
2022-10-18T11:49:19.465Z,23.49
2022-10-18T11:52:07.154Z,23.80
2022-10-18T11:57:12.847Z,24.18
2022-10-18T11:59:58.365Z,23.99
2022-10-18T12:02:31.604Z,24.07
2022-10-18T12:07:57.207Z,24.30
2022-10-18T12:10:37.833Z,24.19
2022-10-18T12:13:23.201Z,23.88
2022-10-18T12:15:53.094Z,23.92
2022-10-18T12:18:23.415Z,23.93
2022-10-18T12:20:55.032Z,23.76
2022-10-18T12:23:27.162Z,23.94
2022-10-18T12:25:59.668Z,23.89
2022-10-18T12:28:44.644Z,24.08
2022-10-18T12:31:33.912Z,24.18
2022-10-18T12:34:02.108Z,24.35
2022-10-18T12:36:29.096Z,24.07
2022-10-18T12:39:09.432Z,24.28
2022-10-18T12:41:37.660Z,23.85
2022-10-18T12:44:05.081Z,23.89
2022-10-18T12:46:58.111Z,23.01
2022-10-18T12:49:25.243Z,23.69
2022-10-18T12:51:58.089Z,23.84
2022-10-18T12:54:27.792Z,23.76
2022-10-18T12:56:58.099Z,23.43
2022-10-18T12:59:27.064Z,23.65
2022-10-18T13:01:54.972Z,23.38
2022-10-18T13:04:28.154Z,23.34
2022-10-18T13:06:58.707Z,23.34
2022-10-18T13:09:28.921Z,23.42
2022-10-18T13:12:02.081Z,23.60
2022-10-18T13:14:35.652Z,23.51
2022-10-18T13:17:05.429Z,23.59
2022-10-18T13:19:38.624Z,23.60
2022-10-18T13:22:09.050Z,23.39
2022-10-18T13:24:35.899Z,23.69
2022-10-18T13:29:59.073Z,23.66
2022-10-18T13:32:48.955Z,23.56
2022-10-18T13:35:34.965Z,23.74
2022-10-18T13:38:01.722Z,23.88
2022-10-18T13:40:28.769Z,23.36
2022-10-18T13:42:55.481Z,23.55
2022-10-18T13:45:31.622Z,23.51
2022-10-18T13:48:27.774Z,23.74
2022-10-18T13:50:54.520Z,23.90
2022-10-18T13:53:44.786Z,23.81
2022-10-18T13:56:17.502Z,23.92
2022-10-18T13:59:13.728Z,23.99
2022-10-18T14:01:44.716Z,23.90
2022-10-18T14:04:30.784Z,23.59
2022-10-18T14:07:02.397Z,23.78
2022-10-18T14:09:47.835Z,23.15
2022-10-18T14:12:21.914Z,23.38
2022-10-18T14:14:56.944Z,23.48
2022-10-18T14:17:28.892Z,23.62
2022-10-18T14:20:03.863Z,23.29
2022-10-18T14:22:50.776Z,23.30
2022-10-18T14:25:22.733Z,23.72
2022-10-18T14:27:53.686Z,23.64
2022-10-18T14:30:21.700Z,23.61
2022-10-18T14:32:49.418Z,23.73
2022-10-18T14:35:33.458Z,23.62
2022-10-18T14:38:01.003Z,23.71
2022-10-18T14:40:29.222Z,23.26
2022-10-18T14:42:56.001Z,23.30
2022-10-18T14:45:23.878Z,23.39
2022-10-18T14:47:50.529Z,23.30
2022-10-18T14:50:21.475Z,22.87
2022-10-18T14:52:48.675Z,23.20
2022-10-18T14:55:17.372Z,23.28
2022-10-18T14:57:44.345Z,23.29
2022-10-18T15:00:17.803Z,23.27
2022-10-18T15:02:44.488Z,23.13
2022-10-18T15:05:14.526Z,22.91
2022-10-18T15:07:41.184Z,22.95
2022-10-18T15:10:08.282Z,22.94
2022-10-18T15:12:45.667Z,22.93
2022-10-18T15:15:22.950Z,22.95
2022-10-18T15:17:49.935Z,22.84
2022-10-18T15:20:31.899Z,22.73
2022-10-18T15:23:18.837Z,22.67
2022-10-18T15:25:45.512Z,22.57
2022-10-18T15:28:23.201Z,22.45
2022-10-18T15:30:50.168Z,22.36
2022-10-18T15:33:21.190Z,22.17
2022-10-18T15:35:48.004Z,22.11
2022-10-18T15:38:15.855Z,21.96
2022-10-18T15:40:43.224Z,21.77
2022-10-18T15:43:22.168Z,21.65
2022-10-18T15:45:49.529Z,21.62
2022-10-18T15:48:16.602Z,21.47
2022-10-18T15:50:44.594Z,21.34
2022-10-18T15:53:31.775Z,21.16
2022-10-18T15:56:09.847Z,21.14
2022-10-18T15:58:44.130Z,20.98
2022-10-18T16:01:16.969Z,20.78
2022-10-18T16:03:44.307Z,20.55
2022-10-18T16:06:13.444Z,20.50
2022-10-18T16:08:43.916Z,20.52
2022-10-18T16:11:14.234Z,20.28
2022-10-18T16:13:40.942Z,20.23
2022-10-18T16:16:09.479Z,20.09
2022-10-18T16:18:38.730Z,19.98
2022-10-18T16:21:05.513Z,19.89
2022-10-18T16:23:32.226Z,19.80
2022-10-18T16:25:59.254Z,19.65
2022-10-18T16:28:26.403Z,19.56
2022-10-18T16:30:54.789Z,19.53
2022-10-18T16:33:25.293Z,19.50
2022-10-18T16:35:52.874Z,19.50
2022-10-18T16:38:21.490Z,19.36
2022-10-18T16:40:48.516Z,19.31
2022-10-18T16:43:15.159Z,19.17
2022-10-18T16:45:42.898Z,19.01
2022-10-18T16:48:16.847Z,18.99
2022-10-18T16:50:43.749Z,19.00
2022-10-18T16:53:10.872Z,18.92
2022-10-18T16:55:38.372Z,18.78
2022-10-18T16:58:05.269Z,18.81
2022-10-18T17:00:32.427Z,18.84
2022-10-18T17:03:02.500Z,18.79
2022-10-18T17:05:31.665Z,18.77
2022-10-18T17:07:59.753Z,18.52
2022-10-18T17:10:27.810Z,18.57
2022-10-18T17:12:56.665Z,18.61
2022-10-18T17:15:25.648Z,18.38
2022-10-18T17:17:52.757Z,18.26
2022-10-18T17:20:22.041Z,18.19
2022-10-18T17:22:49.965Z,18.13
2022-10-18T17:25:18.280Z,17.97
2022-10-18T17:27:48.105Z,17.80
2022-10-18T17:30:15.239Z,18.01
2022-10-18T17:32:45.603Z,17.93
2022-10-18T17:35:13.862Z,17.81
2022-10-18T17:37:44.089Z,17.77
2022-10-18T17:40:17.328Z,17.91
2022-10-18T17:42:45.075Z,17.74
2022-10-18T17:45:15.604Z,17.72
2022-10-18T17:47:42.795Z,17.75
2022-10-18T17:50:15.509Z,17.63
2022-10-18T17:52:46.296Z,17.57
2022-10-18T17:55:14.247Z,17.55
2022-10-18T17:57:42.217Z,17.70
2022-10-18T18:00:10.834Z,17.50
2022-10-18T18:02:41.141Z,17.28
2022-10-18T18:05:10.146Z,17.28
2022-10-18T18:07:37.859Z,17.29
2022-10-18T18:10:05.346Z,17.28
2022-10-18T18:12:33.836Z,17.16
2022-10-18T18:15:01.604Z,17.16
2022-10-18T18:17:34.382Z,17.19
2022-10-18T18:20:07.479Z,17.19
2022-10-18T18:22:36.921Z,17.20
2022-10-18T18:25:09.149Z,17.26
2022-10-18T18:27:36.011Z,17.20
2022-10-18T18:30:03.081Z,17.15
2022-10-18T18:32:34.605Z,17.08
2022-10-18T18:35:02.215Z,17.09
2022-10-18T18:37:29.249Z,16.78
2022-10-18T18:39:56.676Z,16.77
2022-10-18T18:42:23.884Z,16.83
2022-10-18T18:44:54.687Z,16.74
2022-10-18T18:47:24.202Z,16.81
2022-10-18T18:49:52.025Z,16.79
2022-10-18T18:52:19.044Z,16.79
2022-10-18T18:54:46.145Z,16.89
2022-10-18T18:57:17.181Z,16.56
2022-10-18T18:59:47.254Z,16.63
2022-10-18T19:02:20.541Z,16.65
2022-10-18T19:04:48.071Z,16.52
2022-10-18T19:07:15.152Z,16.48
2022-10-18T19:09:43.845Z,16.44
2022-10-18T19:12:11.248Z,16.48
2022-10-18T19:14:38.498Z,16.38
2022-10-18T19:17:08.624Z,16.35
2022-10-18T19:19:36.351Z,16.24
2022-10-18T19:22:08.793Z,16.20
2022-10-18T19:24:35.768Z,16.19
2022-10-18T19:27:10.309Z,16.30
2022-10-18T19:29:38.400Z,15.87
2022-10-18T19:32:08.170Z,16.01
2022-10-18T19:34:36.226Z,16.19
2022-10-18T19:37:04.987Z,15.96
2022-10-18T19:39:33.220Z,15.94
2022-10-18T19:42:03.580Z,15.93
2022-10-18T19:44:32.153Z,16.06
2022-10-18T19:46:59.184Z,16.09
2022-10-18T19:49:29.858Z,16.04
2022-10-18T19:52:03.262Z,15.97
2022-10-18T19:54:30.900Z,15.94
2022-10-18T19:57:02.142Z,15.91
2022-10-18T19:59:31.949Z,15.86
2022-10-18T20:02:01.973Z,15.89
2022-10-18T20:04:34.255Z,15.91
2022-10-18T20:07:06.523Z,15.85
2022-10-18T20:09:35.203Z,15.87
2022-10-18T20:12:02.742Z,15.61
2022-10-18T20:14:32.394Z,15.66
2022-10-18T20:17:00.204Z,15.58
2022-10-18T20:19:26.999Z,15.66
2022-10-18T20:21:56.163Z,15.56
2022-10-18T20:24:23.625Z,15.54
2022-10-18T20:26:50.386Z,15.37
2022-10-18T20:29:17.197Z,15.48
2022-10-18T20:31:44.182Z,15.42
2022-10-18T20:34:11.577Z,15.55
2022-10-18T20:36:38.236Z,15.50
2022-10-18T20:39:05.418Z,15.38
2022-10-18T20:41:36.495Z,15.45
2022-10-18T20:44:04.969Z,15.40
2022-10-18T20:46:32.949Z,15.40
2022-10-18T20:48:59.647Z,15.49
2022-10-18T20:51:26.390Z,15.40
2022-10-18T20:53:53.741Z,15.44
2022-10-18T20:56:21.539Z,15.17
2022-10-18T20:58:49.193Z,15.34
2022-10-18T21:01:20.153Z,15.43
2022-10-18T21:03:47.787Z,15.29
2022-10-18T21:06:15.359Z,15.04
2022-10-18T21:08:42.775Z,15.09
2022-10-18T21:11:09.482Z,15.19
2022-10-18T21:13:36.288Z,15.13
2022-10-18T21:16:03.674Z,14.91
2022-10-18T21:18:31.274Z,14.87
2022-10-18T21:21:10.801Z,14.91
2022-10-18T21:23:37.998Z,14.87
2022-10-18T21:26:04.924Z,14.97
2022-10-18T21:28:31.694Z,15.01
2022-10-18T21:31:08.012Z,15.07
2022-10-18T21:33:34.712Z,15.04
2022-10-18T21:36:01.813Z,15.02
2022-10-18T21:38:28.488Z,14.94
2022-10-18T21:40:55.129Z,15.04
2022-10-18T21:43:22.225Z,15.00
2022-10-18T21:45:48.868Z,14.95
2022-10-18T21:48:15.555Z,14.96
2022-10-18T21:50:42.646Z,14.92
2022-10-18T21:53:09.299Z,15.00
2022-10-18T21:55:36.019Z,14.90
2022-10-18T21:58:03.358Z,14.84
2022-10-18T22:00:30.032Z,14.75
2022-10-18T22:03:26.249Z,14.78
2022-10-18T22:06:03.436Z,14.75
2022-10-18T22:08:30.372Z,14.78
2022-10-18T22:10:57.377Z,14.75
2022-10-18T22:13:24.113Z,14.91
2022-10-18T22:15:51.031Z,14.78
2022-10-18T22:18:18.013Z,14.84
2022-10-18T22:20:54.976Z,14.73
2022-10-18T22:23:22.163Z,14.83
2022-10-18T22:25:48.957Z,14.89
2022-10-18T22:28:16.009Z,14.80
2022-10-18T22:30:42.971Z,14.95
2022-10-18T22:33:09.616Z,14.98
2022-10-18T22:35:36.288Z,15.11
2022-10-18T22:38:03.276Z,14.87
2022-10-18T22:40:29.980Z,15.10
2022-10-18T22:42:56.615Z,15.04
2022-10-18T22:45:23.734Z,15.04
2022-10-18T22:47:50.437Z,14.97
2022-10-18T22:50:17.138Z,14.91
2022-10-18T22:52:44.196Z,14.86
2022-10-18T22:55:10.963Z,15.00
2022-10-18T22:57:37.597Z,14.99
2022-10-18T23:00:04.942Z,15.00
2022-10-18T23:02:31.758Z,15.02
2022-10-18T23:04:58.763Z,15.13
2022-10-18T23:07:25.694Z,15.11
2022-10-18T23:09:52.341Z,15.25
2022-10-18T23:12:19.127Z,15.24
2022-10-18T23:14:46.119Z,15.27
2022-10-18T23:17:12.776Z,15.29
2022-10-18T23:19:39.415Z,15.40
2022-10-18T23:22:06.405Z,15.35
2022-10-18T23:24:33.054Z,15.46
2022-10-18T23:26:59.801Z,15.45
2022-10-18T23:29:26.761Z,14.75
2022-10-18T23:31:53.434Z,15.20
2022-10-18T23:34:20.200Z,15.16
2022-10-18T23:36:47.157Z,15.20
2022-10-18T23:39:13.862Z,15.30
2022-10-18T23:41:40.525Z,15.35
2022-10-18T23:44:09.079Z,15.44
2022-10-18T23:46:35.705Z,15.27
2022-10-18T23:49:02.370Z,15.39
2022-10-18T23:51:29.307Z,15.33
2022-10-18T23:53:55.940Z,15.24
2022-10-18T23:56:22.610Z,15.27
2022-10-18T23:58:49.633Z,15.18
